Flight Track Log - Related Links

Times and Time Zones

All times are in EDT time to prevent confusion due to time zone crossing. See the SWA2365 flight status page for this flight to view local times or setup timezone preferences in your user account.

Time Position Orientation Groundspeed Altitude Reporting Facility
EDT Latitude Longitude Course Direction KTS MPH feet Rate Location/Type
Sat 03:22:50 PM 47.5367 -117.5556 173° South 224 258 6,300  Level Seattle Center
Sat 03:23:51 PM 47.4683 -117.5419 172° South 248 285 8,900 2,607 Climbing Seattle Center
Sat 03:24:52 PM 47.3939 -117.5278 173° South 270 311 11,600 2,262 Climbing Seattle Center
Sat 03:25:53 PM 47.3108 -117.5131 173° South 301 346 13,500 1,770 Climbing Seattle Center
Sat 03:26:54 PM 47.2178 -117.4608 159° South 362 417 15,200 2,213 Climbing Seattle Center
Sat 03:27:00 PM 46.9623 -117.3856 166° South  Level FlightAware Approximate
Sat 03:27:55 PM 47.0994 -117.3875 157° South 387 445 18,000  Level Seattle Center
Sat 03:28:56 PM 46.9961 -117.3236 157° South 400 460 19,600 1,672 Climbing Seattle Center
Sat 03:29:57 PM 46.8872 -117.2561 157° South 421 484 21,400 1,983 Climbing Seattle Center
Sat 03:30:57 PM 46.7758 -117.1878 157° South 433 498 23,600 1,785 Climbing Seattle Center
Sat 03:31:58 PM 46.6633 -117.1203 158° South 437 503 25,000 1,475 Climbing Seattle Center
Sat 03:32:59 PM 46.5447 -117.0467 157° South 458 527 26,600 1,426 Climbing Seattle Center
Sat 03:34:00 PM 46.4253 -116.9767 158° South 466 536 27,900 1,230 Climbing Seattle Center
Sat 03:35:01 PM 46.3028 -116.8997 157° South 478 550 29,100 1,131 Climbing Seattle Center
Sat 03:36:02 PM 46.1794 -116.8258 157° South 482 555 30,200 1,180 Climbing Seattle Center
Sat 03:37:03 PM 46.0542 -116.7497 157° South 488 562 31,500 1,328 Climbing Seattle Center
Sat 03:38:04 PM 45.9289 -116.6744 157° South 490 564 32,900 1,377 Climbing Seattle Center
Sat 03:39:05 PM 45.8042 -116.6047 159° South 483 556 34,300 1,041 Climbing Seattle Center
Sat 03:40:05 PM 45.6550 -116.5147 157° South 486 559 35,000 347 Climbing Seattle Center
Sat 03:41:06 PM 45.5236 -116.4408 158° South 486 559 35,000  Level Seattle Center
Sat 03:42:07 PM 45.3994 -116.3875 163° South 487 560 35,000  Level Seattle Center
Sat 03:43:08 PM 45.2753 -116.3303 162° South 489 563 35,000  Level Seattle Center
Sat 03:44:09 PM 45.1281 -116.2647 163° South 494 568 35,000  Level Seattle Center
Sat 03:45:10 PM 45.0036 -116.2092 162° South 491 565 35,000  Level Seattle Center
Sat 03:46:11 PM 44.8789 -116.1533 162° South 491 565 35,000  Level Seattle Center
Sat 03:47:12 PM 44.7317 -116.0875 162° South 493 567 35,000  Level Seattle Center
Sat 03:48:13 PM 44.6042 -116.0325 163° South 494 568 35,000  Level Seattle Center
Sat 03:49:13 PM 44.4767 -115.9764 163° South 492 566 35,000  Level Seattle Center
Sat 03:50:24 PM 44.3269 -115.9083 162° South 498 573 35,000  Level Salt Lake Center
Sat 03:51:26 PM 44.1781 -115.8453 163° South 498 573 35,000  Level Salt Lake Center
Sat 03:52:27 PM 44.0514 -115.7908 163° South 497 572 35,000  Level Salt Lake Center
Sat 03:53:28 PM 43.9244 -115.7344 162° South 498 573 35,000  Level Salt Lake Center
Sat 03:54:30 PM 43.7769 -115.6714 163° South 496 571 35,000  Level Salt Lake Center
Sat 03:55:31 PM 43.6503 -115.6181 163° South 495 570 35,000  Level Salt Lake Center
Sat 03:56:32 PM 43.5025 -115.5556 163° South 496 571 35,000  Level Salt Lake Center
Sat 03:57:33 PM 43.3764 -115.5017 163° South 495 570 35,000  Level Salt Lake Center
Sat 03:58:35 PM 43.2494 -115.4489 163° South 498 573 35,000  Level Salt Lake Center
Sat 03:59:36 PM 43.1006 -115.3867 163° South 501 577 35,000  Level Salt Lake Center
Sat 04:00:37 PM 42.9742 -115.3328 163° South 496 571 35,000  Level Salt Lake Center
Sat 04:01:38 PM 42.8261 -115.2714 163° South 499 574 35,000  Level Salt Lake Center
Sat 04:02:40 PM 42.6989 -115.2192 163° South 498 573 35,000  Level Salt Lake Center
Sat 04:03:41 PM 42.5717 -115.1667 163° South 498 573 35,000  Level Salt Lake Center
Sat 04:04:42 PM 42.4233 -115.1056 163° South 499 574 35,000  Level Salt Lake Center
Sat 04:05:44 PM 42.2958 -115.0519 163° South 501 577 35,000  Level Salt Lake Center
Sat 04:06:45 PM 42.1678 -115.0008 164° South 501 577 35,000  Level Salt Lake Center
Sat 04:07:46 PM 42.0208 -114.9408 163° South 500 575 35,000  Level Salt Lake Center
Sat 04:08:47 PM 41.8933 -114.8911 164° South 498 573 35,000  Level Salt Lake Center
Sat 04:09:49 PM 41.7439 -114.8306 163° South 501 577 35,000  Level Salt Lake Center
Sat 04:10:50 PM 41.6144 -114.7786 163° South 503 579 35,000  Level Salt Lake Center
Sat 04:11:51 PM 41.4933 -114.7297 163° South 497 572 35,000  Level Salt Lake Center
Sat 04:12:52 PM 41.3344 -114.6653 163° South 497 572 35,000  Level Salt Lake Center
Sat 04:13:54 PM 41.1989 -114.6150 164° South 503 579 35,000  Level Salt Lake Center
Sat 04:14:55 PM 41.0658 -114.5633 164° South 502 578 35,000  Level Salt Lake Center
Sat 04:15:56 PM 40.9325 -114.5108 163° South 500 575 35,000  Level Salt Lake Center
Sat 04:16:57 PM 40.8067 -114.4625 164° South 495 570 35,000  Level Salt Lake Center
Sat 04:17:59 PM 40.6708 -114.4103 164° South 494 568 35,000  Level Salt Lake Center
Sat 04:19:00 PM 40.5389 -114.3583 163° South 497 572 35,000  Level Salt Lake Center
Sat 04:20:01 PM 40.4067 -114.3069 164° South 498 573 35,000  Level Salt Lake Center
Sat 04:21:02 PM 40.2758 -114.2581 164° South 493 567 35,000  Level Salt Lake Center
Sat 04:22:04 PM 40.1175 -114.1969 164° South 494 568 35,000  Level Salt Lake Center
Sat 04:23:05 PM 39.9850 -114.1475 164° South 496 571 35,000  Level Salt Lake Center
Sat 04:24:06 PM 39.8528 -114.0978 164° South 496 571 35,000  Level Salt Lake Center
Sat 04:25:07 PM 39.7111 -114.0433 164° South 496 571 35,000  Level Salt Lake Center
Sat 04:26:09 PM 39.5778 -113.9944 164° South 498 573 35,000  Level Salt Lake Center
Sat 04:27:10 PM 39.4458 -113.9458 164° South 495 570 35,000  Level Salt Lake Center
Sat 04:28:11 PM 39.3125 -113.8956 164° South 498 573 35,000  Level Salt Lake Center
Sat 04:29:12 PM 39.1794 -113.8475 164° South 498 573 35,000  Level Salt Lake Center
Sat 04:30:14 PM 39.0475 -113.7981 164° South 496 571 35,000  Level Salt Lake Center
Sat 04:31:15 PM 38.9128 -113.7483 164° South 504 580 35,000  Level Salt Lake Center
Sat 04:32:16 PM 38.7742 -113.7522 181° South 499 574 35,000  Level Salt Lake Center
Sat 04:33:17 PM 38.6422 -113.7731 187° South 484 557 35,000  Level Salt Lake Center
Sat 04:34:19 PM 38.4850 -113.7989 187° South 477 549 35,000  Level Salt Lake Center
Sat 04:35:20 PM 38.3539 -113.8200 187° South 476 548 35,000 -246 Level Salt Lake Center
Sat 04:36:21 PM 38.2222 -113.8389 186° South 476 548 34,500 -732 Descending Salt Lake Center
Sat 04:37:23 PM 38.0900 -113.8611 188° South 481 554 33,500 -919 Descending Salt Lake Center
Sat 04:38:25 PM 37.9583 -113.8814 187° South 478 550 32,600 -738 Descending Salt Lake Center
Sat 04:39:25 PM 37.8267 -113.9039 188° South 479 551 32,000 -298 Descending Salt Lake Center
Sat 04:40:26 PM 37.7036 -113.9531 198° South 467 537 32,000 -341 Level Salt Lake Center
Sat 04:41:28 PM 37.5811 -114.0033 198° South 465 535 31,300 -1,122 Descending Salt Lake Center
Sat 04:42:29 PM 37.4325 -114.0653 198° South 470 541 29,700 -1,887 Descending Salt Lake Center
Sat 04:44:07 PM 37.2369 -114.1400 197° South 459 528 26,300 -2,063 Descending Los Angeles Center
Sat 04:45:09 PM 37.1158 -114.1900 198° South 457 526 24,200 -1,984 Descending Los Angeles Center
Sat 04:46:11 PM 36.9942 -114.2394 198° South 459 528 22,200 -1,887 Descending Los Angeles Center
Sat 04:47:13 PM 36.8739 -114.2875 198° South 453 521 20,300 -1,887 Descending Los Angeles Center
Sat 04:48:15 PM 36.7594 -114.3328 198° South 435 501 18,300 -2,032 Descending Los Angeles Center
Sat 04:49:17 PM 36.6533 -114.3769 198° South 406 467 16,100 -2,419 Descending Los Angeles Center
Sat 04:50:19 PM 36.5247 -114.4275 198° South 401 461 13,300 -2,658 Descending Los Angeles Center
Sat 04:50:36 PM 36.4981 -114.4419 204° Southwest 391 450 12,600 -1,161 Descending Los Angeles Center
Sat 04:51:21 PM 36.4258 -114.4664 195° South 379 436 12,100 -565 Descending Los Angeles Center
Sat 04:52:01 PM 36.3819 -114.5136 221° Southwest 314 361 11,800 -581 Descending Los Angeles Center
Sat 04:52:23 PM 36.3681 -114.5383 235° Southwest 309 356 11,500 -1,343 Descending Los Angeles Center
Sat 04:53:08 PM 36.3367 -114.6119 242° Southwest 293 337 10,300 -1,452 Descending Los Angeles Center
Sat 04:53:25 PM 36.3281 -114.6250 231° Southwest 290 334 10,000 -1,279 Descending Los Angeles Center
Sat 04:54:09 PM 36.2956 -114.7006 242° Southwest 290 334 9,000 -1,065 Descending Los Angeles Center
Sat 04:54:27 PM 36.2878 -114.7125 231° Southwest 291 335 8,900 -984 Descending Los Angeles Center
Sat 04:55:10 PM 36.2556 -114.7833 241° Southwest 284 327 8,000 -968 Descending Los Angeles Center
Sat 04:55:29 PM 36.2483 -114.7975 238° Southwest 286 329 7,900  Descending Los Angeles Center
Sat 04:56:16 PM 36.2131 -114.8750 241° Southwest 285 328 8,000 97 Climbing Los Angeles Center
Sat 04:56:31 PM 36.2092 -114.8828 238° Southwest 285 328 8,000 -109 Level Los Angeles Center
Sat 04:57:11 PM 36.1764 -114.9539 240° Southwest 275 316 7,900 -97 Descending Los Angeles Center
Sat 04:57:33 PM 36.1631 -114.9789 237° Southwest 274 315 7,900 71 Level Los Angeles Center
Sat 04:58:35 PM 36.1356 -115.0400 241° Southwest 217 250 8,000 57 Climbing Los Angeles Center
Sat 04:59:19 PM 36.1036 -115.0661 213° Southwest 196 226 8,000  Level Los Angeles Center
Sat 04:59:38 PM 36.0908 -115.0714 198° South 194 223 8,000 -90 Level Los Angeles Center
Sat 05:00:26 PM 36.0447 -115.0933 201° Southwest 204 235 7,900 -659 Descending Los Angeles Center
Sat 05:01:09 PM 36.0106 -115.1153 207° Southwest 198 228 7,000 -1,184 Descending Los Angeles Center
Sat 05:01:42 PM 35.9900 -115.1256 202° Southwest 197 227 6,400 -1,300 Descending Los Angeles Center
Sat 05:02:09 PM 35.9681 -115.1586 231° Southwest 209 241 5,700 -1,065 Descending Los Angeles Center
Sat 05:02:44 PM 35.9764 -115.1797 296° West 206 237 5,300 -787 Descending Los Angeles Center
Sat 05:03:10 PM 36.0067 -115.1964 336° Northwest 184 212 4,900 -1,258 Descending Los Angeles Center
Sat 05:03:46 PM 36.0306 -115.1914 10° North 185 213 4,000 -1,672 Descending Los Angeles Center
Sat 05:04:11 PM 36.0450 -115.1839 23° Northeast 151 174 3,200 -1,065 Descending Los Angeles Center
Sat 05:04:48 PM 36.0639 -115.1756 20° North 168 193 2,900 -486 Descending Los Angeles Center
Sat 05:06:00 PM 36.0667 -115.1500 342° North  Level FlightAware Approximate
Sat 05:13:00 PM 36.0801 -115.1523 342° North  Level Estimated

Login

Don't have an account? Register now (free) for customized features, flight alerts, and more!